Terminal Aerodrome Forecast
Issued by NWS

Home | Current Version | Previous Version | Graphics & Text | Print | Product List | Glossary On
Versions: 1 2 3 4 5 6 7 8 9 10 11 12 13 14 15 16 17 18 19 20 21 22 23 24 25 26 27 28 29
074
FTUS43 KGRB 251735
TAFATW
TAF
KATW 251735Z 2518/2618 06009KT P6SM SCT090 BKN200
     FM260100 10007KT 6SM -SHRA BR BKN035 OVC070
      TEMPO 2601/2604 2SM TSRA BKN008 OVC020CB
     FM260600 17005KT 4SM BR OVC009
     FM261500 22009KT P6SM BKN020=

USA.gov is the U.S. government's official web portal to all federal, state and local government web resources and services.